sensor_id;sensor_type;location;lat;lon;timestamp;pressure;altitude;pressure_sealevel;temperature;humidity
76753;BME280;65687;51.308;16.916;2023-05-15T00:02:18;99231.30;;;12.46;79.64
76753;BME280;65687;51.308;16.916;2023-05-15T00:07:20;99223.19;;;12.43;79.67
76753;BME280;65687;51.308;16.916;2023-05-15T00:12:21;99213.06;;;12.40;79.88
76753;BME280;65687;51.308;16.916;2023-05-15T00:17:24;99205.24;;;12.36;79.98
76753;BME280;65687;51.308;16.916;2023-05-15T00:22:26;99195.42;;;12.32;80.18
76753;BME280;65687;51.308;16.916;2023-05-15T00:27:27;99182.80;;;12.27;80.53
76753;BME280;65687;51.308;16.916;2023-05-15T00:32:29;99170.30;;;12.24;80.62
76753;BME280;65687;51.308;16.916;2023-05-15T00:37:30;99161.54;;;12.21;80.86
76753;BME280;65687;51.308;16.916;2023-05-15T00:42:32;99156.40;;;12.17;81.13
76753;BME280;65687;51.308;16.916;2023-05-15T00:47:34;99145.64;;;12.22;80.88
76753;BME280;65687;51.308;16.916;2023-05-15T00:52:36;99138.80;;;12.17;81.19
76753;BME280;65687;51.308;16.916;2023-05-15T00:57:39;99133.38;;;12.06;81.74
76753;BME280;65687;51.308;16.916;2023-05-15T01:02:41;99126.80;;;12.03;81.71
76753;BME280;65687;51.308;16.916;2023-05-15T01:13:09;99119.23;;;12.04;81.77
76753;BME280;65687;51.308;16.916;2023-05-15T01:18:11;99111.38;;;12.10;81.82
76753;BME280;65687;51.308;16.916;2023-05-15T01:28:58;99090.27;;;12.11;81.83
76753;BME280;65687;51.308;16.916;2023-05-15T01:34:02;99082.23;;;12.09;81.73
76753;BME280;65687;51.308;16.916;2023-05-15T01:39:09;99075.72;;;12.07;81.76
76753;BME280;65687;51.308;16.916;2023-05-15T01:44:21;99069.42;;;12.07;81.82
76753;BME280;65687;51.308;16.916;2023-05-15T01:49:27;99068.70;;;12.02;81.96
76753;BME280;65687;51.308;16.916;2023-05-15T01:54:29;99069.89;;;11.95;82.45
76753;BME280;65687;51.308;16.916;2023-05-15T01:59:32;99055.75;;;12.00;82.02
76753;BME280;65687;51.308;16.916;2023-05-15T02:04:36;99061.20;;;12.01;81.97
76753;BME280;65687;51.308;16.916;2023-05-15T02:09:38;99048.05;;;12.02;82.28
76753;BME280;65687;51.308;16.916;2023-05-15T02:14:41;99031.94;;;11.98;82.19
76753;BME280;65687;51.308;16.916;2023-05-15T02:19:43;99016.06;;;11.98;82.28
76753;BME280;65687;51.308;16.916;2023-05-15T02:24:45;99000.42;;;11.97;82.47
76753;BME280;65687;51.308;16.916;2023-05-15T02:35:16;98986.00;;;12.00;82.38
76753;BME280;65687;51.308;16.916;2023-05-15T02:40:19;98969.27;;;12.00;82.41
76753;BME280;65687;51.308;16.916;2023-05-15T02:45:24;98955.00;;;11.95;82.77
76753;BME280;65687;51.308;16.916;2023-05-15T02:50:26;98947.42;;;11.96;82.84
76753;BME280;65687;51.308;16.916;2023-05-15T02:55:29;98934.90;;;11.92;83.01
76753;BME280;65687;51.308;16.916;2023-05-15T03:00:30;98928.38;;;11.86;83.16
76753;BME280;65687;51.308;16.916;2023-05-15T03:05:32;98915.59;;;11.81;83.19
76753;BME280;65687;51.308;16.916;2023-05-15T03:10:34;98914.02;;;11.83;83.16
76753;BME280;65687;51.308;16.916;2023-05-15T03:15:35;98906.88;;;11.86;82.90
76753;BME280;65687;51.308;16.916;2023-05-15T03:20:37;98903.80;;;11.85;82.72
76753;BME280;65687;51.308;16.916;2023-05-15T03:25:39;98900.30;;;11.82;82.90
76753;BME280;65687;51.308;16.916;2023-05-15T03:30:44;98895.42;;;11.80;83.06
76753;BME280;65687;51.308;16.916;2023-05-15T03:35:45;98891.58;;;11.77;83.21
76753;BME280;65687;51.308;16.916;2023-05-15T03:40:47;98887.89;;;11.78;83.53
76753;BME280;65687;51.308;16.916;2023-05-15T03:45:49;98879.97;;;11.82;83.52
76753;BME280;65687;51.308;16.916;2023-05-15T03:50:50;98862.35;;;11.78;83.60
76753;BME280;65687;51.308;16.916;2023-05-15T03:55:52;98872.88;;;11.75;83.53
76753;BME280;65687;51.308;16.916;2023-05-15T04:00:54;98875.22;;;11.72;83.57
76753;BME280;65687;51.308;16.916;2023-05-15T04:05:55;98868.95;;;11.71;83.83
76753;BME280;65687;51.308;16.916;2023-05-15T04:10:57;98862.38;;;11.75;83.75
76753;BME280;65687;51.308;16.916;2023-05-15T04:15:58;98864.90;;;11.78;83.57
76753;BME280;65687;51.308;16.916;2023-05-15T04:21:00;98865.17;;;11.80;83.82
76753;BME280;65687;51.308;16.916;2023-05-15T04:26:01;98859.40;;;11.80;83.57
76753;BME280;65687;51.308;16.916;2023-05-15T04:31:03;98856.86;;;11.84;83.60
76753;BME280;65687;51.308;16.916;2023-05-15T04:36:05;98853.42;;;11.79;83.73
76753;BME280;65687;51.308;16.916;2023-05-15T04:41:08;98853.27;;;11.82;83.60
76753;BME280;65687;51.308;16.916;2023-05-15T04:46:09;98850.26;;;11.83;83.51
76753;BME280;65687;51.308;16.916;2023-05-15T04:51:11;98849.49;;;11.85;83.50
76753;BME280;65687;51.308;16.916;2023-05-15T04:56:13;98840.55;;;11.82;83.51
76753;BME280;65687;51.308;16.916;2023-05-15T05:01:14;98838.81;;;11.74;83.61
76753;BME280;65687;51.308;16.916;2023-05-15T05:06:18;98834.67;;;11.69;83.98
76753;BME280;65687;51.308;16.916;2023-05-15T05:11:21;98828.23;;;11.69;84.07
76753;BME280;65687;51.308;16.916;2023-05-15T05:16:29;98813.46;;;11.72;84.10
76753;BME280;65687;51.308;16.916;2023-05-15T05:21:33;98805.86;;;11.71;84.34
76753;BME280;65687;51.308;16.916;2023-05-15T05:26:35;98803.17;;;11.72;84.53
76753;BME280;65687;51.308;16.916;2023-05-15T05:31:58;98803.02;;;11.72;84.39
76753;BME280;65687;51.308;16.916;2023-05-15T05:37:18;98796.98;;;11.70;84.49
76753;BME280;65687;51.308;16.916;2023-05-15T05:42:19;98785.65;;;11.69;84.87
76753;BME280;65687;51.308;16.916;2023-05-15T05:47:21;98785.33;;;11.77;84.71
76753;BME280;65687;51.308;16.916;2023-05-15T05:52:22;98781.52;;;11.82;84.50
76753;BME280;65687;51.308;16.916;2023-05-15T05:57:24;98772.23;;;11.83;84.35
76753;BME280;65687;51.308;16.916;2023-05-15T06:02:26;98765.20;;;11.81;84.36
76753;BME280;65687;51.308;16.916;2023-05-15T06:07:28;98762.44;;;11.79;84.58
76753;BME280;65687;51.308;16.916;2023-05-15T06:12:30;98753.48;;;11.80;84.63
76753;BME280;65687;51.308;16.916;2023-05-15T06:17:32;98748.45;;;11.88;84.27
76753;BME280;65687;51.308;16.916;2023-05-15T06:22:34;98734.52;;;11.95;84.20
76753;BME280;65687;51.308;16.916;2023-05-15T06:27:36;98727.37;;;11.94;84.43
76753;BME280;65687;51.308;16.916;2023-05-15T06:32:39;98725.20;;;11.95;84.53
76753;BME280;65687;51.308;16.916;2023-05-15T06:37:40;98721.75;;;11.98;84.45
76753;BME280;65687;51.308;16.916;2023-05-15T06:42:42;98714.60;;;11.97;84.67
76753;BME280;65687;51.308;16.916;2023-05-15T06:47:43;98713.04;;;12.00;84.80
76753;BME280;65687;51.308;16.916;2023-05-15T06:52:45;98712.87;;;12.04;84.76
76753;BME280;65687;51.308;16.916;2023-05-15T06:57:46;98711.14;;;12.11;84.46
76753;BME280;65687;51.308;16.916;2023-05-15T07:02:48;98708.54;;;12.18;84.42
76753;BME280;65687;51.308;16.916;2023-05-15T07:07:49;98706.51;;;12.26;84.50
76753;BME280;65687;51.308;16.916;2023-05-15T07:12:51;98702.91;;;12.29;84.62
76753;BME280;65687;51.308;16.916;2023-05-15T07:17:53;98703.77;;;12.34;84.70
76753;BME280;65687;51.308;16.916;2023-05-15T07:22:55;98696.77;;;12.42;84.05
76753;BME280;65687;51.308;16.916;2023-05-15T07:27:56;98691.74;;;12.47;83.96
76753;BME280;65687;51.308;16.916;2023-05-15T07:32:58;98689.33;;;12.50;83.80
76753;BME280;65687;51.308;16.916;2023-05-15T07:37:59;98689.84;;;12.59;83.84
76753;BME280;65687;51.308;16.916;2023-05-15T07:43:01;98691.05;;;12.64;83.74
76753;BME280;65687;51.308;16.916;2023-05-15T07:48:16;98689.15;;;12.72;83.53
76753;BME280;65687;51.308;16.916;2023-05-15T07:53:18;98686.14;;;12.78;83.43
76753;BME280;65687;51.308;16.916;2023-05-15T07:58:20;98685.70;;;12.74;83.60
76753;BME280;65687;51.308;16.916;2023-05-15T08:03:21;98681.86;;;12.72;83.69
76753;BME280;65687;51.308;16.916;2023-05-15T08:08:23;98675.91;;;12.76;83.32
76753;BME280;65687;51.308;16.916;2023-05-15T08:13:24;98671.05;;;12.82;83.04
76753;BME280;65687;51.308;16.916;2023-05-15T08:18:26;98672.55;;;12.85;83.20
76753;BME280;65687;51.308;16.916;2023-05-15T08:23:27;98670.89;;;12.91;83.07
76753;BME280;65687;51.308;16.916;2023-05-15T08:28:29;98667.17;;;12.91;83.26
76753;BME280;65687;51.308;16.916;2023-05-15T08:33:30;98666.66;;;12.91;83.21
76753;BME280;65687;51.308;16.916;2023-05-15T08:38:31;98663.34;;;12.97;83.32
76753;BME280;65687;51.308;16.916;2023-05-15T08:43:35;98662.98;;;12.97;83.25
76753;BME280;65687;51.308;16.916;2023-05-15T08:48:39;98666.63;;;12.99;83.14
76753;BME280;65687;51.308;16.916;2023-05-15T08:53:42;98668.23;;;13.02;83.06
76753;BME280;65687;51.308;16.916;2023-05-15T08:58:44;98664.31;;;13.01;82.89
76753;BME280;65687;51.308;16.916;2023-05-15T09:03:46;98661.70;;;13.09;83.35
76753;BME280;65687;51.308;16.916;2023-05-15T09:08:48;98658.20;;;13.14;83.05
76753;BME280;65687;51.308;16.916;2023-05-15T09:13:50;98660.23;;;13.23;83.44
76753;BME280;65687;51.308;16.916;2023-05-15T09:18:52;98658.55;;;13.29;83.05
76753;BME280;65687;51.308;16.916;2023-05-15T09:23:56;98660.39;;;13.32;83.12
76753;BME280;65687;51.308;16.916;2023-05-15T09:29:15;98658.62;;;13.35;83.12
76753;BME280;65687;51.308;16.916;2023-05-15T09:34:18;98657.20;;;13.34;82.72
76753;BME280;65687;51.308;16.916;2023-05-15T09:39:21;98654.48;;;13.28;82.35
76753;BME280;65687;51.308;16.916;2023-05-15T09:44:26;98658.02;;;13.23;83.03
76753;BME280;65687;51.308;16.916;2023-05-15T09:49:28;98656.23;;;13.21;82.80
76753;BME280;65687;51.308;16.916;2023-05-15T09:54:30;98659.17;;;13.22;82.79
76753;BME280;65687;51.308;16.916;2023-05-15T09:59:31;98658.18;;;13.23;82.73
76753;BME280;65687;51.308;16.916;2023-05-15T10:04:34;98657.34;;;13.23;82.73
76753;BME280;65687;51.308;16.916;2023-05-15T10:09:38;98655.74;;;13.30;82.73
76753;BME280;65687;51.308;16.916;2023-05-15T10:14:40;98648.30;;;13.46;83.54
76753;BME280;65687;51.308;16.916;2023-05-15T10:19:41;98641.34;;;13.56;83.28
76753;BME280;65687;51.308;16.916;2023-05-15T10:24:46;98637.98;;;13.51;82.42
76753;BME280;65687;51.308;16.916;2023-05-15T10:29:49;98646.07;;;13.51;82.27
76753;BME280;65687;51.308;16.916;2023-05-15T10:34:52;98647.97;;;13.56;82.07
76753;BME280;65687;51.308;16.916;2023-05-15T10:39:56;98645.91;;;13.65;81.62
76753;BME280;65687;51.308;16.916;2023-05-15T10:44:58;98652.45;;;13.78;81.11
76753;BME280;65687;51.308;16.916;2023-05-15T10:50:03;98655.90;;;13.85;81.28
76753;BME280;65687;51.308;16.916;2023-05-15T10:55:12;98652.06;;;13.97;80.48
76753;BME280;65687;51.308;16.916;2023-05-15T11:05:22;98636.73;;;14.06;79.23
76753;BME280;65687;51.308;16.916;2023-05-15T11:15:42;98647.32;;;14.08;77.83
76753;BME280;65687;51.308;16.916;2023-05-15T11:25:55;98646.33;;;13.93;78.13
76753;BME280;65687;51.308;16.916;2023-05-15T11:31:05;98633.48;;;13.95;78.24
76753;BME280;65687;51.308;16.916;2023-05-15T11:36:07;98624.08;;;14.03;78.16
76753;BME280;65687;51.308;16.916;2023-05-15T11:41:19;98618.95;;;14.13;78.16
76753;BME280;65687;51.308;16.916;2023-05-15T11:46:24;98616.20;;;14.18;77.76
76753;BME280;65687;51.308;16.916;2023-05-15T11:51:26;98614.61;;;14.21;77.37
76753;BME280;65687;51.308;16.916;2023-05-15T11:56:41;98616.83;;;14.16;77.10
76753;BME280;65687;51.308;16.916;2023-05-15T12:01:45;98621.45;;;14.06;77.08
76753;BME280;65687;51.308;16.916;2023-05-15T12:06:50;98617.06;;;14.07;76.93
76753;BME280;65687;51.308;16.916;2023-05-15T12:11:53;98616.78;;;14.04;77.06
76753;BME280;65687;51.308;16.916;2023-05-15T12:16:59;98614.02;;;14.03;76.88
76753;BME280;65687;51.308;16.916;2023-05-15T12:22:05;98607.45;;;14.09;77.10
76753;BME280;65687;51.308;16.916;2023-05-15T12:27:09;98605.53;;;14.13;76.75
76753;BME280;65687;51.308;16.916;2023-05-15T12:32:11;98607.76;;;14.19;77.04
76753;BME280;65687;51.308;16.916;2023-05-15T12:37:13;98603.10;;;14.28;76.02
76753;BME280;65687;51.308;16.916;2023-05-15T12:42:15;98597.42;;;14.36;76.23
76753;BME280;65687;51.308;16.916;2023-05-15T12:47:21;98599.17;;;14.49;76.49
76753;BME280;65687;51.308;16.916;2023-05-15T12:52:27;98598.31;;;14.60;75.73
76753;BME280;65687;51.308;16.916;2023-05-15T12:57:29;98599.27;;;14.63;75.08
76753;BME280;65687;51.308;16.916;2023-05-15T13:02:31;98598.88;;;14.61;74.26
76753;BME280;65687;51.308;16.916;2023-05-15T13:07:32;98603.64;;;14.56;74.24
76753;BME280;65687;51.308;16.916;2023-05-15T13:12:38;98603.08;;;14.48;74.46
76753;BME280;65687;51.308;16.916;2023-05-15T13:17:40;98597.02;;;14.40;74.68
76753;BME280;65687;51.308;16.916;2023-05-15T13:22:42;98591.38;;;14.38;75.23
76753;BME280;65687;51.308;16.916;2023-05-15T13:27:46;98594.27;;;14.44;74.76
76753;BME280;65687;51.308;16.916;2023-05-15T13:32:48;98592.73;;;14.43;74.64
76753;BME280;65687;51.308;16.916;2023-05-15T13:37:50;98593.92;;;14.38;74.81
76753;BME280;65687;51.308;16.916;2023-05-15T13:42:52;98596.64;;;14.33;75.08
76753;BME280;65687;51.308;16.916;2023-05-15T13:47:54;98595.77;;;14.27;75.37
76753;BME280;65687;51.308;16.916;2023-05-15T13:52:56;98596.95;;;14.21;75.65
76753;BME280;65687;51.308;16.916;2023-05-15T13:57:57;98589.86;;;14.22;75.60
76753;BME280;65687;51.308;16.916;2023-05-15T14:02:59;98593.44;;;14.29;76.26
76753;BME280;65687;51.308;16.916;2023-05-15T14:08:00;98592.02;;;14.42;76.33
76753;BME280;65687;51.308;16.916;2023-05-15T14:13:02;98596.50;;;14.50;75.96
76753;BME280;65687;51.308;16.916;2023-05-15T14:18:03;98598.83;;;14.54;75.79
76753;BME280;65687;51.308;16.916;2023-05-15T14:23:05;98602.06;;;14.49;75.92
76753;BME280;65687;51.308;16.916;2023-05-15T14:28:06;98605.41;;;14.36;76.63
76753;BME280;65687;51.308;16.916;2023-05-15T14:33:08;98615.30;;;14.21;77.40
76753;BME280;65687;51.308;16.916;2023-05-15T14:38:09;98615.87;;;14.07;77.79
76753;BME280;65687;51.308;16.916;2023-05-15T14:43:12;98622.86;;;13.97;78.18
76753;BME280;65687;51.308;16.916;2023-05-15T14:48:13;98619.37;;;13.89;78.13
76753;BME280;65687;51.308;16.916;2023-05-15T14:53:15;98625.14;;;13.79;78.78
76753;BME280;65687;51.308;16.916;2023-05-15T14:58:16;98637.64;;;13.67;79.55
76753;BME280;65687;51.308;16.916;2023-05-15T15:03:17;98646.95;;;13.56;79.78
76753;BME280;65687;51.308;16.916;2023-05-15T15:08:19;98654.89;;;13.45;79.92
76753;BME280;65687;51.308;16.916;2023-05-15T15:13:21;98653.81;;;13.34;80.35
76753;BME280;65687;51.308;16.916;2023-05-15T15:18:22;98662.89;;;13.22;80.68
76753;BME280;65687;51.308;16.916;2023-05-15T15:23:24;98663.42;;;13.13;80.86
76753;BME280;65687;51.308;16.916;2023-05-15T15:28:25;98662.39;;;13.09;81.15
76753;BME280;65687;51.308;16.916;2023-05-15T15:33:29;98659.56;;;13.10;81.29
76753;BME280;65687;51.308;16.916;2023-05-15T15:38:31;98655.48;;;13.10;81.38
76753;BME280;65687;51.308;16.916;2023-05-15T15:43:32;98658.39;;;13.10;81.63
76753;BME280;65687;51.308;16.916;2023-05-15T15:48:34;98654.08;;;13.13;81.73
76753;BME280;65687;51.308;16.916;2023-05-15T15:53:36;98655.89;;;13.20;81.78
76753;BME280;65687;51.308;16.916;2023-05-15T15:58:38;98662.36;;;13.17;81.38
76753;BME280;65687;51.308;16.916;2023-05-15T16:03:39;98668.09;;;13.11;81.26
76753;BME280;65687;51.308;16.916;2023-05-15T16:08:41;98670.38;;;13.10;81.19
76753;BME280;65687;51.308;16.916;2023-05-15T16:13:42;98673.92;;;13.09;81.54
76753;BME280;65687;51.308;16.916;2023-05-15T16:18:44;98669.03;;;13.10;81.53
76753;BME280;65687;51.308;16.916;2023-05-15T16:23:46;98665.63;;;13.13;81.31
76753;BME280;65687;51.308;16.916;2023-05-15T16:28:47;98664.99;;;13.14;81.29
76753;BME280;65687;51.308;16.916;2023-05-15T16:33:50;98667.98;;;13.12;81.18
76753;BME280;65687;51.308;16.916;2023-05-15T16:38:53;98672.23;;;13.13;81.15
76753;BME280;65687;51.308;16.916;2023-05-15T16:43:54;98675.35;;;13.11;81.31
76753;BME280;65687;51.308;16.916;2023-05-15T16:48:56;98675.36;;;13.11;81.62
76753;BME280;65687;51.308;16.916;2023-05-15T16:53:57;98680.74;;;13.10;81.59
76753;BME280;65687;51.308;16.916;2023-05-15T16:58:59;98678.11;;;13.12;81.74
76753;BME280;65687;51.308;16.916;2023-05-15T17:04:01;98686.58;;;13.15;81.86
76753;BME280;65687;51.308;16.916;2023-05-15T17:09:02;98690.16;;;13.17;81.54
76753;BME280;65687;51.308;16.916;2023-05-15T17:14:04;98695.38;;;13.15;81.56
76753;BME280;65687;51.308;16.916;2023-05-15T17:19:06;98697.52;;;13.14;81.72
76753;BME280;65687;51.308;16.916;2023-05-15T17:24:07;98694.80;;;13.13;81.59
76753;BME280;65687;51.308;16.916;2023-05-15T17:29:09;98696.59;;;13.16;81.68
76753;BME280;65687;51.308;16.916;2023-05-15T17:34:11;98698.06;;;13.14;81.84
76753;BME280;65687;51.308;16.916;2023-05-15T17:39:13;98705.85;;;13.10;81.49
76753;BME280;65687;51.308;16.916;2023-05-15T17:44:15;98711.60;;;13.10;81.53
76753;BME280;65687;51.308;16.916;2023-05-15T17:49:16;98708.74;;;13.11;81.52
76753;BME280;65687;51.308;16.916;2023-05-15T17:54:18;98711.88;;;13.13;81.69
76753;BME280;65687;51.308;16.916;2023-05-15T17:59:20;98719.62;;;13.15;81.55
76753;BME280;65687;51.308;16.916;2023-05-15T18:04:21;98728.60;;;13.11;81.21
76753;BME280;65687;51.308;16.916;2023-05-15T18:09:23;98734.89;;;13.07;81.31
76753;BME280;65687;51.308;16.916;2023-05-15T18:14:24;98741.46;;;13.06;81.40
76753;BME280;65687;51.308;16.916;2023-05-15T18:19:26;98752.60;;;13.05;81.25
76753;BME280;65687;51.308;16.916;2023-05-15T18:24:28;98759.16;;;12.99;81.43
76753;BME280;65687;51.308;16.916;2023-05-15T18:29:29;98765.02;;;12.93;81.55
76753;BME280;65687;51.308;16.916;2023-05-15T18:34:31;98772.19;;;12.90;81.74
76753;BME280;65687;51.308;16.916;2023-05-15T18:39:35;98780.98;;;12.89;81.45
76753;BME280;65687;51.308;16.916;2023-05-15T18:44:37;98793.48;;;12.88;81.63
76753;BME280;65687;51.308;16.916;2023-05-15T18:49:38;98800.14;;;12.85;81.73
76753;BME280;65687;51.308;16.916;2023-05-15T18:54:40;98797.83;;;12.78;81.93
76753;BME280;65687;51.308;16.916;2023-05-15T18:59:42;98799.34;;;12.73;82.01
76753;BME280;65687;51.308;16.916;2023-05-15T19:04:44;98813.86;;;12.64;82.17
76753;BME280;65687;51.308;16.916;2023-05-15T19:09:46;98820.57;;;12.54;82.46
76753;BME280;65687;51.308;16.916;2023-05-15T19:14:47;98820.38;;;12.45;82.52
76753;BME280;65687;51.308;16.916;2023-05-15T19:19:49;98833.13;;;12.38;82.48
76753;BME280;65687;51.308;16.916;2023-05-15T19:24:52;98838.91;;;12.31;82.75
76753;BME280;65687;51.308;16.916;2023-05-15T19:29:53;98839.03;;;12.25;82.71
76753;BME280;65687;51.308;16.916;2023-05-15T19:34:55;98841.80;;;12.15;82.79
76753;BME280;65687;51.308;16.916;2023-05-15T19:39:56;98847.08;;;12.04;83.16
76753;BME280;65687;51.308;16.916;2023-05-15T19:44:58;98852.29;;;11.99;83.27
76753;BME280;65687;51.308;16.916;2023-05-15T19:50:00;98854.98;;;11.95;83.38
76753;BME280;65687;51.308;16.916;2023-05-15T19:55:01;98850.42;;;11.91;83.24
76753;BME280;65687;51.308;16.916;2023-05-15T20:00:03;98851.48;;;11.81;82.99
76753;BME280;65687;51.308;16.916;2023-05-15T20:05:06;98852.12;;;11.66;83.31
76753;BME280;65687;51.308;16.916;2023-05-15T20:10:09;98855.91;;;11.52;83.53
76753;BME280;65687;51.308;16.916;2023-05-15T20:15:12;98853.42;;;11.45;83.57
76753;BME280;65687;51.308;16.916;2023-05-15T20:20:14;98856.99;;;11.42;83.29
76753;BME280;65687;51.308;16.916;2023-05-15T20:25:16;98871.73;;;11.40;83.32
76753;BME280;65687;51.308;16.916;2023-05-15T20:30:18;98875.60;;;11.32;83.25
76753;BME280;65687;51.308;16.916;2023-05-15T20:35:20;98872.02;;;11.17;83.29
76753;BME280;65687;51.308;16.916;2023-05-15T20:40:25;98871.51;;;11.02;83.47
76753;BME280;65687;51.308;16.916;2023-05-15T20:45:27;98876.94;;;10.96;83.49
76753;BME280;65687;51.308;16.916;2023-05-15T20:50:28;98883.35;;;10.92;83.53
76753;BME280;65687;51.308;16.916;2023-05-15T20:55:30;98888.58;;;10.92;83.54
76753;BME280;65687;51.308;16.916;2023-05-15T21:00:31;98888.51;;;10.87;83.59
76753;BME280;65687;51.308;16.916;2023-05-15T21:05:33;98890.67;;;10.69;83.93
76753;BME280;65687;51.308;16.916;2023-05-15T21:10:35;98890.11;;;10.62;83.94
76753;BME280;65687;51.308;16.916;2023-05-15T21:15:36;98889.43;;;10.58;83.95
76753;BME280;65687;51.308;16.916;2023-05-15T21:20:39;98891.62;;;10.47;84.06
76753;BME280;65687;51.308;16.916;2023-05-15T21:25:41;98890.80;;;10.38;84.20
76753;BME280;65687;51.308;16.916;2023-05-15T21:30:42;98889.39;;;10.36;84.37
76753;BME280;65687;51.308;16.916;2023-05-15T21:35:44;98886.95;;;10.38;84.07
76753;BME280;65687;51.308;16.916;2023-05-15T21:40:47;98884.78;;;10.39;84.01
76753;BME280;65687;51.308;16.916;2023-05-15T21:45:49;98880.55;;;10.35;83.85
76753;BME280;65687;51.308;16.916;2023-05-15T21:50:54;98878.63;;;10.27;84.08
76753;BME280;65687;51.308;16.916;2023-05-15T21:55:59;98882.23;;;10.19;84.36
76753;BME280;65687;51.308;16.916;2023-05-15T22:01:00;98889.58;;;10.17;84.49
76753;BME280;65687;51.308;16.916;2023-05-15T22:06:33;98887.48;;;10.19;84.29
76753;BME280;65687;51.308;16.916;2023-05-15T22:11:35;98891.80;;;10.15;84.23
76753;BME280;65687;51.308;16.916;2023-05-15T22:16:36;98902.83;;;10.10;84.42
76753;BME280;65687;51.308;16.916;2023-05-15T22:21:38;98908.02;;;10.02;84.50
76753;BME280;65687;51.308;16.916;2023-05-15T22:26:39;98914.30;;;10.00;84.43
76753;BME280;65687;51.308;16.916;2023-05-15T22:31:41;98918.55;;;9.94;84.69
76753;BME280;65687;51.308;16.916;2023-05-15T22:36:42;98921.71;;;9.90;84.84
76753;BME280;65687;51.308;16.916;2023-05-15T22:41:44;98928.60;;;9.93;84.74
76753;BME280;65687;51.308;16.916;2023-05-15T22:46:46;98931.30;;;9.96;84.59
76753;BME280;65687;51.308;16.916;2023-05-15T22:51:48;98933.26;;;9.98;84.57
76753;BME280;65687;51.308;16.916;2023-05-15T22:56:51;98933.95;;;9.98;84.44
76753;BME280;65687;51.308;16.916;2023-05-15T23:01:52;98927.66;;;9.97;84.46
76753;BME280;65687;51.308;16.916;2023-05-15T23:06:54;98929.38;;;9.98;84.28
76753;BME280;65687;51.308;16.916;2023-05-15T23:11:55;98933.52;;;9.90;83.98
76753;BME280;65687;51.308;16.916;2023-05-15T23:16:57;98933.34;;;9.78;84.36
76753;BME280;65687;51.308;16.916;2023-05-15T23:21:59;98938.89;;;9.71;84.42
76753;BME280;65687;51.308;16.916;2023-05-15T23:27:00;98942.42;;;9.68;84.81
76753;BME280;65687;51.308;16.916;2023-05-15T23:32:02;98948.55;;;9.69;85.03
76753;BME280;65687;51.308;16.916;2023-05-15T23:37:04;98949.71;;;9.75;84.77
76753;BME280;65687;51.308;16.916;2023-05-15T23:42:05;98956.40;;;9.80;84.60
76753;BME280;65687;51.308;16.916;2023-05-15T23:47:10;98959.95;;;9.80;84.31
76753;BME280;65687;51.308;16.916;2023-05-15T23:52:11;98962.25;;;9.85;84.09
76753;BME280;65687;51.308;16.916;2023-05-15T23:57:13;98964.70;;;9.80;83.89
